Terminal Aerodrome Forecast
Issued by NWS Sioux Falls, SD

Home | Current Version | Previous Version | Graphics & Text | Print | Product List | Glossary On
Versions: 1 2 3 4 5 6 7 8 9 10 11 12 13 14 15
000
FTUS43 KFSD 171121
TAFSUX
TAF
KSUX 171121Z 1712/1812 14004KT P6SM SCT250
     FM171700 16013KT P6SM FEW120 SCT250
     FM172000 16013G22KT P6SM SCT120
     FM180200 15011KT P6SM FEW250=

USA.gov is the U.S. government's official web portal to all federal, state and local government web resources and services.